Gouldbusk, Texas
Current Conditions -  °F | °C
As of 4:55 PM on Friday 28 Nov 2014 (Local Time) from KCOM Reporting Station
Clear Clear  
Wind Chill: 70°   Ceiling: Unl
Heat Index: 70°   Visibility: 10mi
Dew Point: 45°   Wind: 8mph
Humidity: 40%   Direction: 210°SSW
Pressure: 30.04"   Gusts: NA
Location:  31.55°N, 99.48°W
Report Text: KCOM 282255Z AUTO 21007KT 10SM CLR 21/07 A3004 RMK AO2 T02110070
Loading
Personal Weather Stations






























Interactive Weather Map New forecast layout! Learn more

10-Day Weather Forecast

Advertisements
Track Severe Weather on mobile